• Join FlightAware (Why Join?)
  • Login
  • US Flag 
04:40AM EDT


 

Airport Tracker/Info


-or-


 

Live Flight TrackerFlight Track Log ✈ QLK106D ✈ 20-Sep-2013 ✈ YSSY / SYD - YCFS

Flight Track Log - Related Links

Times and Time Zones

All times are in EDT time to prevent confusion due to time zone crossing. See the QLK106D flight status page for this flight to view local times or setup timezone preferences in your user account.

Time Position Orientation Groundspeed Altitude Reporting Facility
EDT Latitude Longitude Course Direction KTS MPH feet Rate Location/Type
06:54PM -33.8853 151.2105 198° South 12,000  Level Aus ATC (Calculated)
06:55PM -33.9390 151.1900 North 141 162 1,400 -9,900 Descending Aus ATC (RADAR)
06:55PM -33.9106 151.1938 North 178 205 2,600 1,980 Climbing Aus ATC (RADAR)
06:56PM -33.8667 151.2005 North 218 251 4,100 1,020 Climbing Aus ATC (RADAR)
06:58PM -33.7696 151.2409 19° North 258 297 5,000 420 Climbing Aus ATC (RADAR)
06:58PM -33.7424 151.2579 28° Northeast 262 302 5,000  Level Aus ATC (RADAR)
06:58PM -33.7151 151.2749 27° Northeast 264 304 5,000 900 Level Aus ATC (RADAR)
06:59PM -33.6764 151.2980 26° Northeast 266 306 5,900 1,800 Climbing Aus ATC (RADAR)
07:00PM -33.6262 151.3292 27° Northeast 274 315 7,500 2,220 Climbing Aus ATC (RADAR)
07:00PM -33.5862 151.3537 27° Northeast 278 320 8,900 2,340 Climbing Aus ATC (RADAR)
07:01PM -33.5457 151.3779 27° Northeast 281 323 10,200 2,100 Climbing Aus ATC (RADAR)
07:02PM -33.5046 151.4029 27° Northeast 286 329 11,400 2,100 Climbing Aus ATC (RADAR)
07:03PM -33.4323 151.4472 27° Northeast 295 339 13,600 2,040 Climbing Aus ATC (RADAR)
07:03PM -33.3905 151.4732 27° Northeast 293 337 14,700 1,860 Climbing Aus ATC (RADAR)
07:04PM -33.3477 151.4995 27° Northeast 298 343 15,800 1,920 Climbing Aus ATC (RADAR)
07:04PM -33.3053 151.5262 28° Northeast 296 341 17,000 1,680 Climbing Aus ATC (RADAR)
07:05PM -33.2614 151.5525 27° Northeast 303 349 17,800 1,320 Climbing Aus ATC (RADAR)
07:05PM -33.2163 151.5798 27° Northeast 311 358 18,600 1,200 Climbing Aus ATC (RADAR)
07:06PM -33.1489 151.6201 27° Northeast 326 375 19,500 1,320 Climbing Aus ATC (RADAR)
07:07PM -33.1152 151.6408 27° Northeast 327 376 20,300 900 Climbing Aus ATC (RADAR)
07:08PM -33.0249 151.6949 27° Northeast 340 391 20,900 360 Climbing Aus ATC (RADAR)
07:08PM -32.9875 151.7172 27° Northeast 355 409 20,900  Level Aus ATC (RADAR)
07:09PM -32.9334 151.7500 27° Northeast 370 426 20,900  Level Aus ATC (RADAR)
07:10PM -32.8534 151.7983 27° Northeast 383 441 20,900  Level Aus ATC (RADAR)
07:10PM -32.7967 151.8304 25° Northeast 386 444 20,900  Level Aus ATC (RADAR)
07:11PM -32.7225 151.8493 12° North 365 420 20,900  Level Aus ATC (RADAR)
07:11PM -32.6807 151.8576 North 364 419 20,900  Level Aus ATC (RADAR)
07:12PM -32.6229 151.8699 10° North 363 418 20,900  Level Aus ATC (RADAR)
07:13PM -32.4990 151.9001 12° North 361 415 20,900  Level Aus ATC (RADAR)
07:14PM -32.4576 151.9102 12° North 363 418 20,900  Level Aus ATC (RADAR)
07:14PM -32.3992 151.9242 11° North 367 422 20,900  Level Aus ATC (RADAR)
07:15PM -32.3160 151.9430 11° North 366 421 20,900  Level Aus ATC (RADAR)
07:16PM -32.2574 151.9566 11° North 367 422 20,900  Level Aus ATC (RADAR)
07:16PM -32.1826 151.9737 11° North 365 420 20,900  Level Aus ATC (RADAR)
07:17PM -32.1410 151.9838 12° North 366 421 20,900  Level Aus ATC (RADAR)
07:18PM -32.0171 152.0264 16° North 383 441 20,900  Level Aus ATC (RADAR)
07:18PM -31.9800 152.0582 36° Northeast 389 448 20,900  Level Aus ATC (RADAR)
07:19PM -31.9286 152.1030 37° Northeast 389 448 20,900 60 Level Aus ATC (RADAR)
07:20PM -31.8537 152.1640 35° Northeast 386 444 21,000 60 Climbing Aus ATC (RADAR)
07:20PM -31.8009 152.2060 34° Northeast 386 444 21,000  Level Aus ATC (RADAR)
07:21PM -31.7258 152.2655 34° Northeast 387 445 21,000  Level Aus ATC (RADAR)
07:22PM -31.6882 152.2951 34° Northeast 384 442 21,000  Level Aus ATC (RADAR)
07:23PM -31.5771 152.3833 34° Northeast 380 437 21,000 -180 Level Aus ATC (RADAR)
07:23PM -31.5405 152.4129 35° Northeast 378 435 20,700 -840 Descending Aus ATC (RADAR)
07:24PM -31.5036 152.4415 33° Northeast 375 432 20,300 -1,020 Descending Aus ATC (RADAR)
07:24PM -31.4524 152.4815 34° Northeast 373 429 19,700 -1,020 Descending Aus ATC (RADAR)
07:25PM -31.3799 152.5380 34° Northeast 371 427 18,900 -1,020 Descending Aus ATC (RADAR)
07:26PM -31.3288 152.5786 34° Northeast 373 429 18,300 -1,080 Descending Aus ATC (RADAR)
07:26PM -31.2612 152.6339 35° Northeast 386 444 17,500 -1,200 Descending Aus ATC (RADAR)
07:27PM -31.2241 152.6632 34° Northeast 375 432 16,900 -1,620 Descending Aus ATC (RADAR)
07:28PM -31.1245 152.7399 33° Northeast 356 410 15,000 -1,620 Descending Aus ATC (RADAR)
07:28PM -31.0898 152.7665 33° Northeast 350 403 14,400 -1,680 Descending Aus ATC (RADAR)
07:29PM -31.0433 152.7998 31° Northeast 337 388 13,400 -1,560 Descending Aus ATC (RADAR)
07:30PM -30.9698 152.8311 20° North 332 382 12,200 -1,500 Descending Aus ATC (RADAR)
07:30PM -30.9191 152.8523 20° North 327 376 11,300 -1,440 Descending Aus ATC (RADAR)
07:31PM -30.8456 152.8868 22° Northeast 310 357 10,100 -1,320 Descending Aus ATC (RADAR)
07:32PM -30.8267 152.8949 20° North 293 337 9,800 -1,320 Descending Aus ATC (RADAR)
07:32PM -30.7833 152.9135 20° North 282 325 9,000 -1,440 Descending Aus ATC (RADAR)
07:33PM -30.7114 152.9457 21° North 273 314 7,600 -1,380 Descending Aus ATC (RADAR)
07:34PM -30.6819 152.9596 22° Northeast 271 312 7,100 -1,320 Descending Aus ATC (RADAR)
07:34PM -30.6356 152.9811 22° Northeast 271 312 6,200 -1,380 Descending Aus ATC (RADAR)
07:35PM -30.5824 153.0039 20° North 266 306 5,200 -1,260 Descending Aus ATC (RADAR)
07:36PM -30.5420 153.0220 21° North 263 303 4,500 -1,320 Descending Aus ATC (RADAR)
07:36PM -30.4906 153.0450 21° North 259 298 3,500 -1,320 Descending Aus ATC (RADAR)
07:37PM -30.4583 153.0599 22° Northeast 249 287 2,900 -1,260 Descending Aus ATC (RADAR)
07:39PM -30.3184 153.1148 19° North  Level FlightAware Approximate
07:46PM -30.3122 153.1172 21° North  Level FlightAware Approximate
07:47PM -30.3206 153.1164 21° North  Level Estimated
07:48PM -30.3206 153.1164 21° North  Level Estimated
07:49PM -30.3206 153.1164 21° North  Level Estimated
07:50PM -30.3206 153.1164 21° North  Level Estimated
07:51PM -30.3206 153.1164 21° North  Level Estimated
07:52PM -30.3206 153.1164 21° North  Level Estimated
07:53PM -30.3206 153.1164 21° North  Level Estimated
07:54PM -30.3206 153.1164 21° North  Level Estimated